createdAt,value
2019-03-08T00:00:33.793Z,994.05
2019-03-08T00:01:33.764Z,994.03
2019-03-08T00:02:33.754Z,994.02
2019-03-08T00:03:33.733Z,994.09
2019-03-08T00:04:33.725Z,994.06
2019-03-08T00:05:33.724Z,994.10
2019-03-08T00:06:33.713Z,994.12
2019-03-08T00:07:33.698Z,994.08
2019-03-08T00:08:33.696Z,994.06
2019-03-08T00:09:33.692Z,994.07
2019-03-08T00:10:33.659Z,994.05
2019-03-08T00:11:33.724Z,994.06
2019-03-08T00:12:33.641Z,994.03
2019-03-08T00:13:33.642Z,994.05
2019-03-08T00:14:33.616Z,994.04
2019-03-08T00:15:33.610Z,993.96
2019-03-08T00:16:33.602Z,993.97
2019-03-08T00:17:33.600Z,993.93
2019-03-08T00:18:33.582Z,993.93
2019-03-08T00:19:33.562Z,994.11
2019-03-08T00:20:33.576Z,994.01
2019-03-08T00:21:33.541Z,993.95
2019-03-08T00:22:33.539Z,993.98
2019-03-08T00:23:33.531Z,993.92
2019-03-08T00:24:33.526Z,993.88
2019-03-08T00:25:33.509Z,993.78
2019-03-08T00:26:33.558Z,993.93
2019-03-08T00:27:33.483Z,993.91
2019-03-08T00:28:33.493Z,993.92
2019-03-08T00:29:33.467Z,993.83
2019-03-08T00:30:33.458Z,993.81
2019-03-08T00:31:33.440Z,993.83
2019-03-08T00:32:33.443Z,993.90
2019-03-08T00:33:33.423Z,993.85
2019-03-08T00:34:33.457Z,993.90
2019-03-08T00:35:33.397Z,993.82
2019-03-08T00:36:33.387Z,993.86
2019-03-08T00:37:33.376Z,993.86
2019-03-08T00:38:33.354Z,993.84
2019-03-08T00:39:33.347Z,993.90
2019-03-08T00:40:33.354Z,993.87
2019-03-08T00:41:33.319Z,993.79
2019-03-08T00:42:33.317Z,993.91
2019-03-08T00:43:33.297Z,993.92
2019-03-08T00:44:33.292Z,993.97
2019-03-08T00:45:33.293Z,993.87
2019-03-08T00:46:33.278Z,993.87
2019-03-08T00:47:33.285Z,993.85
2019-03-08T00:48:33.260Z,994.00
2019-03-08T00:49:33.239Z,993.91
2019-03-08T00:50:33.268Z,993.92
2019-03-08T00:51:33.244Z,993.89
2019-03-08T00:52:33.260Z,993.89
2019-03-08T00:53:33.196Z,993.90
2019-03-08T00:54:33.179Z,993.93
2019-03-08T00:55:33.179Z,993.89
2019-03-08T00:56:33.160Z,993.87
2019-03-08T00:57:33.167Z,993.87
2019-03-08T00:58:33.140Z,993.88
2019-03-08T00:59:33.130Z,993.86
2019-03-08T01:00:33.114Z,993.85
2019-03-08T01:01:33.098Z,993.81
2019-03-08T01:02:33.097Z,993.81
2019-03-08T01:03:33.109Z,993.85
2019-03-08T01:04:33.074Z,993.89
2019-03-08T01:05:33.062Z,993.76
2019-03-08T01:06:33.053Z,993.85
2019-03-08T01:07:33.039Z,993.80
2019-03-08T01:08:33.063Z,993.84
2019-03-08T01:09:33.047Z,993.77
2019-03-08T01:10:32.993Z,993.86
2019-03-08T01:11:32.982Z,993.75
2019-03-08T01:12:32.988Z,993.79
2019-03-08T01:13:33.106Z,993.78
2019-03-08T01:14:32.957Z,993.68
2019-03-08T01:15:32.958Z,993.68
2019-03-08T01:16:32.935Z,993.65
2019-03-08T01:17:32.926Z,993.63
2019-03-08T01:18:32.918Z,993.63
2019-03-08T01:19:32.903Z,993.59
2019-03-08T01:20:32.954Z,993.57
2019-03-08T01:21:32.931Z,993.56
2019-03-08T01:22:32.873Z,993.62
2019-03-08T01:23:32.855Z,993.63
2019-03-08T01:24:32.850Z,993.56
2019-03-08T01:25:32.837Z,993.64
2019-03-08T01:26:32.895Z,993.61
2019-03-08T01:27:32.807Z,993.55
2019-03-08T01:28:32.797Z,993.51
2019-03-08T01:29:32.788Z,993.51
2019-03-08T01:30:32.806Z,993.49
2019-03-08T01:31:32.765Z,993.48
2019-03-08T01:32:32.759Z,993.56
2019-03-08T01:33:32.739Z,993.45
2019-03-08T01:34:32.735Z,993.46
2019-03-08T01:35:32.720Z,993.43
2019-03-08T01:36:32.718Z,993.50
2019-03-08T01:37:32.707Z,993.46
2019-03-08T01:38:32.692Z,993.41
2019-03-08T01:39:32.688Z,993.42
2019-03-08T01:40:32.668Z,993.46
2019-03-08T01:41:32.654Z,993.38
2019-03-08T01:42:32.660Z,993.50
2019-03-08T01:43:32.640Z,993.40
2019-03-08T01:44:33.895Z,993.40
2019-03-08T01:45:32.625Z,993.41
2019-03-08T01:46:32.596Z,993.33
2019-03-08T01:47:32.597Z,993.29
2019-03-08T01:48:32.612Z,993.28
2019-03-08T01:49:32.566Z,993.29
2019-03-08T01:50:32.551Z,993.35
2019-03-08T01:51:32.645Z,993.16
2019-03-08T01:52:32.546Z,993.22
2019-03-08T01:53:32.523Z,993.28
2019-03-08T01:54:32.512Z,993.23
2019-03-08T01:55:32.517Z,993.35
2019-03-08T01:56:32.480Z,993.32
2019-03-08T01:57:32.474Z,993.41
2019-03-08T01:58:32.485Z,993.31
2019-03-08T01:59:32.469Z,993.41
2019-03-08T02:00:32.594Z,993.31
2019-03-08T02:01:32.441Z,993.44
2019-03-08T02:02:32.419Z,993.39
2019-03-08T02:03:32.427Z,993.36
2019-03-08T02:04:32.402Z,993.36
2019-03-08T02:05:32.399Z,993.39
2019-03-08T02:06:32.389Z,993.38
2019-03-08T02:07:33.220Z,993.34
2019-03-08T02:08:32.350Z,993.25
2019-03-08T02:09:32.349Z,993.31
2019-03-08T02:10:32.340Z,993.23
2019-03-08T02:11:32.345Z,993.18
2019-03-08T02:12:32.320Z,993.20
2019-03-08T02:13:32.299Z,993.17
2019-03-08T02:14:32.289Z,993.15
2019-03-08T02:15:32.281Z,993.12
2019-03-08T02:16:32.292Z,993.22
2019-03-08T02:17:32.259Z,993.10
2019-03-08T02:18:32.250Z,993.24
2019-03-08T02:19:32.226Z,993.08
2019-03-08T02:20:32.218Z,993.14
2019-03-08T02:21:32.214Z,993.15
2019-03-08T02:22:32.200Z,993.07
2019-03-08T02:23:32.181Z,993.06
2019-03-08T02:24:32.172Z,993.09
2019-03-08T02:25:32.158Z,993.03
2019-03-08T02:26:32.153Z,993.03
2019-03-08T02:27:32.154Z,993.06
2019-03-08T02:28:32.130Z,993.04
2019-03-08T02:29:32.183Z,993.16
2019-03-08T02:30:32.111Z,993.00
2019-03-08T02:31:32.099Z,992.90
2019-03-08T02:32:32.109Z,992.92
2019-03-08T02:33:32.095Z,992.95
2019-03-08T02:34:32.060Z,992.86
2019-03-08T02:35:32.057Z,992.99
2019-03-08T02:36:32.030Z,992.91
2019-03-08T02:37:32.027Z,992.85
2019-03-08T02:38:32.021Z,992.92
2019-03-08T02:39:32.010Z,993.09
2019-03-08T02:40:31.996Z,992.83
2019-03-08T02:41:31.997Z,992.86
2019-03-08T02:42:31.970Z,992.93
2019-03-08T02:43:31.963Z,992.88
2019-03-08T02:44:31.948Z,992.88
2019-03-08T02:45:31.959Z,992.93
2019-03-08T02:46:31.924Z,993.00
2019-03-08T02:47:31.909Z,992.92
2019-03-08T02:48:31.904Z,992.88
2019-03-08T02:49:31.892Z,992.95
2019-03-08T02:50:31.900Z,992.96
2019-03-08T02:51:31.877Z,992.78
2019-03-08T02:52:31.919Z,993.05
2019-03-08T02:53:31.849Z,992.89
2019-03-08T02:54:31.840Z,992.97
2019-03-08T02:55:31.821Z,993.11
2019-03-08T02:56:31.821Z,992.97
2019-03-08T02:57:31.799Z,992.89
2019-03-08T02:58:31.783Z,992.81
2019-03-08T02:59:31.777Z,992.83
2019-03-08T03:00:31.771Z,992.83
2019-03-08T03:01:31.794Z,992.90
2019-03-08T03:02:31.748Z,992.80
2019-03-08T03:03:31.737Z,992.85
2019-03-08T03:04:31.723Z,992.80
2019-03-08T03:05:31.704Z,992.93
2019-03-08T03:06:31.707Z,992.85
2019-03-08T03:07:31.694Z,992.79
2019-03-08T03:08:31.692Z,992.88
2019-03-08T03:09:31.730Z,992.86
2019-03-08T03:10:31.659Z,992.85
2019-03-08T03:11:31.682Z,992.83
2019-03-08T03:12:31.636Z,992.88
2019-03-08T03:13:31.630Z,992.82
2019-03-08T03:14:31.605Z,992.87
2019-03-08T03:15:31.614Z,992.82
2019-03-08T03:16:31.598Z,992.89
2019-03-08T03:17:31.581Z,992.77
2019-03-08T03:18:31.587Z,992.85
2019-03-08T03:19:31.595Z,992.80
2019-03-08T03:20:31.544Z,992.71
2019-03-08T03:21:31.538Z,992.68
2019-03-08T03:22:31.542Z,992.79
2019-03-08T03:23:31.526Z,992.76
2019-03-08T03:24:31.505Z,992.79
2019-03-08T03:25:31.490Z,992.75
2019-03-08T03:26:31.478Z,992.79
2019-03-08T03:27:31.465Z,992.79
2019-03-08T03:28:31.464Z,992.78
2019-03-08T03:29:31.443Z,992.78
2019-03-08T03:30:31.437Z,992.80
2019-03-08T03:31:31.424Z,992.75
2019-03-08T03:32:31.413Z,992.72
2019-03-08T03:33:31.412Z,992.81
2019-03-08T03:34:31.391Z,992.73
2019-03-08T03:35:31.401Z,992.58
2019-03-08T03:36:31.391Z,992.80
2019-03-08T03:37:31.373Z,992.78
2019-03-08T03:38:31.347Z,992.69
2019-03-08T03:39:31.339Z,992.74
2019-03-08T03:40:31.328Z,992.69
2019-03-08T03:41:31.369Z,992.72
2019-03-08T03:42:31.304Z,992.66
2019-03-08T03:43:31.287Z,992.61
2019-03-08T03:44:31.281Z,992.53
2019-03-08T03:45:31.284Z,992.64
2019-03-08T03:46:31.251Z,992.61
2019-03-08T03:47:31.245Z,992.49
2019-03-08T03:48:31.267Z,992.50
2019-03-08T03:49:31.223Z,992.55
2019-03-08T03:50:31.209Z,992.57
2019-03-08T03:51:31.209Z,992.57
2019-03-08T03:52:31.260Z,992.65
2019-03-08T03:53:31.274Z,992.50
2019-03-08T03:54:31.466Z,992.57
2019-03-08T03:55:31.212Z,992.37
2019-03-08T03:56:31.175Z,992.49
2019-03-08T03:57:31.147Z,992.56
2019-03-08T03:58:31.125Z,992.50
2019-03-08T03:59:31.117Z,992.58
2019-03-08T04:00:31.114Z,992.57
2019-03-08T04:01:31.129Z,992.61
2019-03-08T04:02:31.120Z,992.44
2019-03-08T04:03:31.080Z,992.73
2019-03-08T04:04:31.066Z,992.43
2019-03-08T04:05:31.064Z,992.47
2019-03-08T04:06:31.040Z,992.51
2019-03-08T04:07:31.032Z,992.48
2019-03-08T04:08:31.026Z,992.48
2019-03-08T04:09:31.009Z,992.51
2019-03-08T04:10:31.054Z,992.45
2019-03-08T04:11:30.993Z,992.51
2019-03-08T04:12:30.966Z,992.39
2019-03-08T04:13:30.964Z,992.53
2019-03-08T04:14:30.947Z,992.50
2019-03-08T04:15:30.976Z,992.53
2019-03-08T04:16:30.922Z,992.50
2019-03-08T04:17:30.931Z,992.33
2019-03-08T04:18:30.905Z,992.43
2019-03-08T04:19:30.905Z,992.35
2019-03-08T04:20:30.888Z,992.40
2019-03-08T04:21:30.915Z,992.31
2019-03-08T04:22:30.875Z,992.33
2019-03-08T04:23:30.867Z,992.31
2019-03-08T04:24:30.856Z,992.45
2019-03-08T04:25:30.872Z,992.36
2019-03-08T04:26:30.821Z,992.39
2019-03-08T04:27:30.809Z,992.37
2019-03-08T04:28:30.793Z,992.37
2019-03-08T04:29:30.787Z,992.41
2019-03-08T04:30:30.794Z,992.37
2019-03-08T04:31:30.763Z,992.42
2019-03-08T04:32:30.752Z,992.45
2019-03-08T04:33:30.755Z,992.47
2019-03-08T04:34:30.731Z,992.48
2019-03-08T04:35:30.739Z,992.37
2019-03-08T04:36:30.713Z,992.35
2019-03-08T04:37:30.719Z,992.34
2019-03-08T04:38:30.685Z,992.34
2019-03-08T04:39:30.682Z,992.22
2019-03-08T04:40:30.666Z,992.31
2019-03-08T04:41:30.649Z,992.24
2019-03-08T04:42:30.651Z,992.30
2019-03-08T04:43:30.634Z,992.25
2019-03-08T04:44:30.634Z,992.29
2019-03-08T04:45:30.617Z,992.36
2019-03-08T04:46:30.609Z,992.30
2019-03-08T04:47:30.609Z,992.29
2019-03-08T04:48:30.586Z,992.26
2019-03-08T04:49:30.574Z,992.28
2019-03-08T04:50:30.562Z,992.19
2019-03-08T04:51:30.554Z,992.40
2019-03-08T04:52:30.584Z,992.21
2019-03-08T04:53:30.541Z,992.34
2019-03-08T04:54:30.515Z,992.34
2019-03-08T04:55:30.514Z,992.43
2019-03-08T04:56:30.487Z,992.33
2019-03-08T04:57:30.490Z,992.42
2019-03-08T04:58:30.462Z,992.44
2019-03-08T04:59:30.460Z,992.23
2019-03-08T05:00:30.444Z,992.30
2019-03-08T05:01:30.424Z,992.38
2019-03-08T05:02:30.418Z,992.34
2019-03-08T05:03:30.411Z,992.40
2019-03-08T05:04:30.400Z,992.39
2019-03-08T05:05:30.411Z,992.25
2019-03-08T05:06:30.382Z,992.29
2019-03-08T05:07:30.369Z,992.44
2019-03-08T05:08:30.362Z,992.18
2019-03-08T05:09:30.346Z,992.18
2019-03-08T05:10:30.349Z,992.24
2019-03-08T05:11:30.321Z,992.19
2019-03-08T05:12:31.080Z,992.34
2019-03-08T05:13:30.295Z,992.20
2019-03-08T05:14:30.292Z,992.23
2019-03-08T05:15:30.281Z,992.19
2019-03-08T05:16:30.285Z,992.09
2019-03-08T05:17:30.256Z,992.10
2019-03-08T05:18:30.253Z,992.13
2019-03-08T05:19:30.233Z,992.24
2019-03-08T05:20:30.222Z,992.23
2019-03-08T05:21:30.783Z,992.21
2019-03-08T05:22:30.207Z,992.14
2019-03-08T05:23:30.259Z,992.18
2019-03-08T05:24:30.174Z,992.06
2019-03-08T05:25:30.193Z,992.15
2019-03-08T05:26:30.157Z,992.16
2019-03-08T05:27:30.142Z,992.11
2019-03-08T05:28:30.133Z,992.17
2019-03-08T05:29:30.127Z,992.23
2019-03-08T05:30:30.113Z,992.13
2019-03-08T05:31:30.102Z,992.09
2019-03-08T05:32:30.093Z,992.08
2019-03-08T05:33:30.100Z,992.13
2019-03-08T05:34:30.073Z,992.19
2019-03-08T05:35:30.058Z,992.23
2019-03-08T05:36:30.071Z,992.04
2019-03-08T05:37:30.050Z,992.13
2019-03-08T05:38:30.069Z,992.18
2019-03-08T05:39:30.012Z,992.14
2019-03-08T05:40:30.002Z,992.18
2019-03-08T05:41:30.000Z,992.22
2019-03-08T05:42:29.998Z,992.17
2019-03-08T05:43:29.971Z,992.15
2019-03-08T05:44:29.972Z,992.20
2019-03-08T05:45:30.031Z,992.16
2019-03-08T05:46:29.960Z,992.23
2019-03-08T05:47:29.926Z,992.26
2019-03-08T05:48:29.917Z,992.23
2019-03-08T05:49:29.902Z,992.32
2019-03-08T05:50:29.906Z,992.28
2019-03-08T05:51:29.882Z,992.16
2019-03-08T05:52:29.873Z,992.39
2019-03-08T05:53:29.858Z,992.37
2019-03-08T05:54:29.857Z,992.31
2019-03-08T05:55:29.842Z,992.33
2019-03-08T05:56:29.931Z,992.35
2019-03-08T05:57:29.853Z,992.31
2019-03-08T05:58:29.803Z,992.42
2019-03-08T05:59:29.794Z,992.39
2019-03-08T06:00:32.153Z,992.33
2019-03-08T06:01:30.771Z,992.35
2019-03-08T06:02:29.761Z,992.43
2019-03-08T06:03:29.767Z,992.42
2019-03-08T06:04:29.745Z,992.50
2019-03-08T06:05:29.724Z,992.39
2019-03-08T06:06:29.715Z,992.41
2019-03-08T06:07:29.704Z,992.54
2019-03-08T06:08:29.693Z,992.61
2019-03-08T06:09:29.683Z,992.48
2019-03-08T06:10:29.671Z,992.36
2019-03-08T06:11:29.656Z,992.50
2019-03-08T06:12:29.675Z,992.51
2019-03-08T06:13:29.635Z,992.53
2019-03-08T06:14:29.640Z,992.52
2019-03-08T06:15:29.677Z,992.57
2019-03-08T06:16:29.610Z,992.70
2019-03-08T06:17:29.617Z,992.64
2019-03-08T06:18:29.583Z,992.76
2019-03-08T06:19:29.568Z,992.83
2019-03-08T06:20:29.574Z,992.66
2019-03-08T06:21:29.542Z,992.87
2019-03-08T06:22:29.584Z,992.58
2019-03-08T06:23:29.552Z,992.66
2019-03-08T06:24:29.508Z,992.69
2019-03-08T06:25:29.527Z,992.81
2019-03-08T06:26:29.487Z,992.74
2019-03-08T06:27:29.504Z,992.64
2019-03-08T06:28:29.476Z,992.74
2019-03-08T06:29:29.464Z,992.83
2019-03-08T06:30:29.446Z,992.71
2019-03-08T06:31:29.443Z,992.74
2019-03-08T06:32:29.449Z,992.64
2019-03-08T06:33:29.436Z,992.68
2019-03-08T06:34:29.441Z,992.97
2019-03-08T06:35:29.407Z,992.82
2019-03-08T06:36:29.405Z,992.72
2019-03-08T06:37:29.373Z,992.76
2019-03-08T06:38:29.354Z,992.92
2019-03-08T06:39:29.351Z,992.98
2019-03-08T06:40:29.343Z,993.00
2019-03-08T06:41:29.322Z,992.92
2019-03-08T06:42:29.315Z,993.09
2019-03-08T06:43:29.318Z,992.93
2019-03-08T06:44:29.295Z,993.05
2019-03-08T06:45:29.295Z,993.16
2019-03-08T06:46:29.287Z,993.06
2019-03-08T06:47:29.266Z,993.03
2019-03-08T06:48:29.245Z,993.29
2019-03-08T06:49:29.244Z,993.26
2019-03-08T06:50:29.219Z,993.27
2019-03-08T06:51:29.293Z,993.21
2019-03-08T06:52:29.195Z,993.15
2019-03-08T06:53:29.201Z,993.18
2019-03-08T06:54:29.241Z,993.36
2019-03-08T06:55:29.170Z,993.34
2019-03-08T06:56:29.154Z,993.23
2019-03-08T06:57:29.176Z,993.31
2019-03-08T06:58:29.332Z,993.43
2019-03-08T06:59:29.130Z,993.32
2019-03-08T07:00:29.124Z,993.27
2019-03-08T07:01:29.098Z,993.50
2019-03-08T07:02:30.258Z,993.37
2019-03-08T07:03:29.115Z,993.42
2019-03-08T07:04:29.104Z,993.61
2019-03-08T07:05:29.071Z,993.62
2019-03-08T07:06:29.068Z,993.57
2019-03-08T07:07:29.064Z,993.46
2019-03-08T07:08:29.030Z,993.58
2019-03-08T07:09:29.016Z,993.52
2019-03-08T07:10:29.013Z,993.60
2019-03-08T07:11:28.993Z,993.55
2019-03-08T07:12:28.992Z,993.58
2019-03-08T07:13:28.974Z,993.64
2019-03-08T07:14:28.959Z,993.66
2019-03-08T07:15:28.949Z,993.62
2019-03-08T07:16:28.936Z,993.63
2019-03-08T07:17:28.985Z,993.61
2019-03-08T07:18:28.921Z,993.71
2019-03-08T07:19:28.898Z,993.80
2019-03-08T07:20:28.904Z,993.88
2019-03-08T07:21:28.884Z,993.89
2019-03-08T07:22:28.881Z,993.86
2019-03-08T07:23:28.864Z,993.84
2019-03-08T07:24:28.913Z,993.87
2019-03-08T07:25:28.858Z,993.90
2019-03-08T07:26:28.823Z,993.92
2019-03-08T07:27:28.809Z,993.84
2019-03-08T07:28:28.899Z,993.86
2019-03-08T07:29:28.829Z,993.88
2019-03-08T07:30:28.787Z,994.01
2019-03-08T07:31:28.798Z,993.78
2019-03-08T07:32:28.778Z,994.00
2019-03-08T07:33:28.745Z,993.94
2019-03-08T07:34:28.758Z,994.01
2019-03-08T07:35:28.729Z,994.05
2019-03-08T07:36:28.721Z,994.02
2019-03-08T07:37:28.721Z,994.06
2019-03-08T07:38:28.698Z,993.90
2019-03-08T07:39:28.755Z,994.04
2019-03-08T07:40:28.669Z,993.99
2019-03-08T07:41:28.972Z,994.12
2019-03-08T07:42:28.683Z,994.03
2019-03-08T07:43:28.679Z,994.10
2019-03-08T07:44:28.685Z,994.18
2019-03-08T07:45:28.618Z,994.19
2019-03-08T07:46:28.687Z,994.15
2019-03-08T07:47:28.588Z,994.25
2019-03-08T07:48:28.587Z,994.45
2019-03-08T07:49:28.569Z,994.26
2019-03-08T07:50:28.566Z,994.29
2019-03-08T07:51:28.546Z,994.20
2019-03-08T07:52:28.533Z,994.42
2019-03-08T07:53:28.547Z,994.30
2019-03-08T07:54:28.522Z,994.37
2019-03-08T07:55:28.505Z,994.37
2019-03-08T07:56:28.498Z,994.42
2019-03-08T07:57:28.526Z,994.51
2019-03-08T07:58:28.508Z,994.51
2019-03-08T07:59:28.519Z,994.53
2019-03-08T08:00:28.485Z,994.53
2019-03-08T08:01:28.446Z,994.53
2019-03-08T08:02:28.450Z,994.74
2019-03-08T08:03:28.413Z,994.48
2019-03-08T08:04:30.429Z,994.51
2019-03-08T08:05:28.391Z,994.65
2019-03-08T08:06:28.394Z,994.81
2019-03-08T08:07:28.363Z,994.73
2019-03-08T08:08:28.373Z,994.67
2019-03-08T08:09:28.343Z,994.80
2019-03-08T08:10:28.334Z,994.83
2019-03-08T08:11:28.324Z,994.82
2019-03-08T08:12:28.315Z,994.97
2019-03-08T08:13:36.953Z,994.95
2019-03-08T08:14:59.583Z,994.86
2019-03-08T08:15:59.592Z,995.05
2019-03-08T08:16:59.549Z,995.04
2019-03-08T08:17:59.540Z,995.10
2019-03-08T08:18:59.528Z,995.28
2019-03-08T08:19:59.543Z,994.80
2019-03-08T08:21:01.168Z,994.96
2019-03-08T08:21:59.493Z,995.05
2019-03-08T08:22:59.485Z,995.00
2019-03-08T08:23:59.483Z,995.35
2019-03-08T08:24:59.470Z,995.36
2019-03-08T08:25:59.464Z,995.10
2019-03-08T08:26:59.433Z,995.20
2019-03-08T08:27:59.425Z,995.21
2019-03-08T08:28:59.414Z,995.34
2019-03-08T08:29:59.414Z,995.27
2019-03-08T08:30:59.395Z,995.27
2019-03-08T08:31:59.384Z,995.34
2019-03-08T08:32:59.385Z,995.46
2019-03-08T08:33:59.361Z,995.40
2019-03-08T08:34:59.352Z,995.34
2019-03-08T08:35:59.333Z,995.41
2019-03-08T08:36:59.334Z,995.48
2019-03-08T08:37:59.318Z,995.69
2019-03-08T08:38:59.332Z,995.50
2019-03-08T08:39:59.325Z,995.70
2019-03-08T08:40:59.296Z,995.82
2019-03-08T08:41:59.274Z,995.45
2019-03-08T08:42:59.278Z,995.57
2019-03-08T08:43:59.253Z,995.75
2019-03-08T08:44:59.259Z,995.71
2019-03-08T08:45:59.229Z,995.68
2019-03-08T08:46:59.222Z,995.69
2019-03-08T08:47:59.208Z,995.68
2019-03-08T08:48:59.364Z,996.00
2019-03-08T08:49:59.202Z,995.69
2019-03-08T08:50:59.182Z,995.83
2019-03-08T08:51:59.178Z,995.88
2019-03-08T08:52:59.160Z,995.80
2019-03-08T08:53:59.171Z,995.90
2019-03-08T08:54:59.147Z,995.94
2019-03-08T08:55:59.130Z,995.97
2019-03-08T08:56:59.109Z,995.94
2019-03-08T08:57:59.104Z,995.99
2019-03-08T08:58:59.099Z,995.94
2019-03-08T08:59:59.093Z,996.09
2019-03-08T09:00:59.111Z,996.01
2019-03-08T09:01:59.104Z,996.06
2019-03-08T09:03:00.533Z,996.07
2019-03-08T09:03:59.145Z,996.08
2019-03-08T09:05:01.073Z,996.03
2019-03-08T09:05:59.013Z,996.36
2019-03-08T09:06:58.999Z,996.25
2019-03-08T09:07:58.997Z,996.31
2019-03-08T09:08:58.976Z,996.07
2019-03-08T09:09:58.975Z,996.18
2019-03-08T09:10:58.961Z,996.17
2019-03-08T09:11:58.965Z,996.26
2019-03-08T09:12:58.935Z,996.27
2019-03-08T09:13:58.923Z,996.19
2019-03-08T09:14:58.918Z,996.22
2019-03-08T09:15:58.901Z,996.42
2019-03-08T09:16:58.898Z,996.33
2019-03-08T09:17:58.879Z,996.43
2019-03-08T09:18:58.898Z,996.46
2019-03-08T09:19:59.367Z,996.51
2019-03-08T09:20:58.848Z,996.49
2019-03-08T09:21:58.839Z,996.39
2019-03-08T09:22:58.826Z,996.46
2019-03-08T09:23:58.819Z,996.59
2019-03-08T09:24:58.836Z,996.68
2019-03-08T09:25:58.782Z,996.59
2019-03-08T09:26:58.779Z,996.69
2019-03-08T09:27:58.774Z,996.62
2019-03-08T09:28:58.752Z,996.52
2019-03-08T09:29:58.750Z,996.51
2019-03-08T09:30:58.747Z,996.65
2019-03-08T09:31:58.723Z,996.70
2019-03-08T09:32:59.578Z,996.76
2019-03-08T09:33:58.708Z,996.92
2019-03-08T09:34:58.690Z,996.88
2019-03-08T09:35:58.685Z,996.92
2019-03-08T09:36:58.668Z,997.03
2019-03-08T09:37:58.652Z,997.07
2019-03-08T09:38:58.651Z,997.14
2019-03-08T09:39:58.632Z,997.13
2019-03-08T09:40:58.629Z,997.08
2019-03-08T09:41:58.629Z,997.07
2019-03-08T09:42:58.606Z,997.23
2019-03-08T09:43:58.587Z,997.03
2019-03-08T09:44:58.612Z,997.16
2019-03-08T09:45:58.565Z,997.18
2019-03-08T09:46:58.562Z,997.38
2019-03-08T09:47:58.560Z,997.24
2019-03-08T09:48:58.952Z,997.37
2019-03-08T09:49:58.527Z,997.39
2019-03-08T09:50:58.509Z,997.31
2019-03-08T09:51:58.517Z,997.33
2019-03-08T09:52:58.493Z,997.40
2019-03-08T09:53:58.477Z,997.49
2019-03-08T09:54:58.476Z,997.48
2019-03-08T09:55:58.466Z,997.50
2019-03-08T09:56:58.444Z,997.51
2019-03-08T09:57:58.434Z,997.57
2019-03-08T09:58:58.416Z,997.63
2019-03-08T09:59:58.419Z,997.84
2019-03-08T10:00:58.408Z,997.74
2019-03-08T10:01:58.405Z,997.71
2019-03-08T10:02:58.407Z,997.77
2019-03-08T10:03:58.379Z,997.82
2019-03-08T10:04:58.377Z,997.82
2019-03-08T10:05:58.358Z,997.91
2019-03-08T10:06:58.351Z,998.06
2019-03-08T10:07:58.318Z,998.03
2019-03-08T10:08:58.311Z,997.94
2019-03-08T10:09:58.310Z,998.16
2019-03-08T10:10:58.319Z,998.09
2019-03-08T10:11:58.282Z,998.13
2019-03-08T10:12:58.274Z,998.11
2019-03-08T10:13:58.255Z,998.14
2019-03-08T10:14:58.247Z,998.05
2019-03-08T10:15:58.252Z,998.11
2019-03-08T10:16:58.272Z,998.15
2019-03-08T10:17:58.227Z,998.11
2019-03-08T10:18:58.235Z,998.07
2019-03-08T10:19:58.211Z,998.28
2019-03-08T10:20:58.181Z,998.26
2019-03-08T10:21:58.173Z,998.23
2019-03-08T10:22:58.163Z,998.24
2019-03-08T10:23:58.152Z,998.26
2019-03-08T10:24:58.136Z,998.24
2019-03-08T10:25:58.136Z,998.21
2019-03-08T10:26:58.150Z,998.30
2019-03-08T10:27:58.145Z,998.50
2019-03-08T10:28:58.097Z,998.33
2019-03-08T10:29:58.091Z,998.48
2019-03-08T10:30:58.075Z,998.38
2019-03-08T10:31:58.109Z,998.45
2019-03-08T10:32:58.070Z,998.44
2019-03-08T10:33:58.051Z,998.35
2019-03-08T10:34:58.040Z,998.53
2019-03-08T10:35:58.019Z,998.51
2019-03-08T10:36:58.013Z,998.53
2019-03-08T10:37:57.999Z,998.76
2019-03-08T10:38:58.031Z,998.63
2019-03-08T10:39:57.991Z,998.53
2019-03-08T10:40:57.976Z,998.55
2019-03-08T10:41:57.963Z,998.62
2019-03-08T10:42:58.858Z,998.63
2019-03-08T10:43:57.956Z,998.54
2019-03-08T10:44:57.958Z,998.63
2019-03-08T10:45:57.917Z,998.83
2019-03-08T10:46:57.906Z,998.75
2019-03-08T10:47:57.915Z,998.70
2019-03-08T10:48:57.930Z,998.79
2019-03-08T10:49:57.874Z,998.76
2019-03-08T10:50:57.858Z,998.83
2019-03-08T10:51:57.849Z,998.91
2019-03-08T10:52:57.845Z,998.82
2019-03-08T10:54:00.899Z,998.79
2019-03-08T10:54:58.511Z,998.82
2019-03-08T10:55:57.835Z,998.82
2019-03-08T10:56:57.795Z,998.79
2019-03-08T10:57:57.785Z,998.91
2019-03-08T10:58:57.776Z,998.86
2019-03-08T10:59:57.760Z,999.00
2019-03-08T11:00:57.754Z,999.32
2019-03-08T11:01:57.748Z,999.23
2019-03-08T11:02:57.730Z,999.46
2019-03-08T11:03:57.791Z,999.46
2019-03-08T11:04:57.732Z,999.50
2019-03-08T11:05:57.701Z,999.65
2019-03-08T11:06:57.683Z,999.62
2019-03-08T11:07:57.666Z,999.68
2019-03-08T11:08:57.674Z,999.62
2019-03-08T11:09:57.668Z,999.57
2019-03-08T11:11:05.949Z,999.74
2019-03-08T11:11:58.645Z,999.67
2019-03-08T11:12:57.621Z,999.67
2019-03-08T11:13:57.603Z,999.72
2019-03-08T11:14:57.593Z,999.77
2019-03-08T11:15:57.611Z,999.78
2019-03-08T11:16:57.584Z,999.90
2019-03-08T11:17:57.608Z,999.77
2019-03-08T11:18:57.570Z,999.91
2019-03-08T11:19:57.541Z,999.88
2019-03-08T11:20:57.536Z,999.87
2019-03-08T11:21:57.537Z,1000.00
2019-03-08T11:22:57.506Z,999.91
2019-03-08T11:23:57.501Z,999.90
2019-03-08T11:24:57.481Z,999.93
2019-03-08T11:25:57.489Z,999.99
2019-03-08T11:27:04.769Z,1000.08
2019-03-08T11:27:58.475Z,999.95
2019-03-08T11:28:57.444Z,1000.14
2019-03-08T11:29:57.438Z,1000.08
2019-03-08T11:30:57.414Z,1000.15
2019-03-08T11:31:57.410Z,1000.11
2019-03-08T11:32:57.410Z,1000.17
2019-03-08T11:33:57.417Z,1000.16
2019-03-08T11:34:57.428Z,1000.17
2019-03-08T11:35:57.368Z,1000.19
2019-03-08T11:36:57.360Z,1000.27
2019-03-08T11:37:57.363Z,1000.22
2019-03-08T11:38:57.340Z,1000.23
2019-03-08T11:39:57.353Z,1000.23
2019-03-08T11:40:57.374Z,1000.23
2019-03-08T11:41:57.307Z,1000.37
2019-03-08T11:42:57.283Z,1000.33
2019-03-08T11:43:57.286Z,1000.25
2019-03-08T11:44:57.279Z,1000.26
2019-03-08T11:45:57.276Z,1000.40
2019-03-08T11:46:57.252Z,1000.31
2019-03-08T11:47:57.233Z,1000.43
2019-03-08T11:48:57.228Z,1000.47
2019-03-08T11:49:57.233Z,1000.45
2019-03-08T11:50:57.201Z,1000.50
2019-03-08T11:51:57.184Z,1000.49
2019-03-08T11:52:57.169Z,1000.49
2019-03-08T11:53:57.164Z,1000.47
2019-03-08T11:54:57.160Z,1000.54
2019-03-08T11:55:57.145Z,1000.57
2019-03-08T11:56:57.138Z,1000.46
2019-03-08T11:57:57.122Z,1000.45
2019-03-08T11:58:57.111Z,1000.57
2019-03-08T11:59:57.097Z,1000.50
2019-03-08T12:00:57.089Z,1000.61
2019-03-08T12:01:59.082Z,1000.51
2019-03-08T12:02:57.069Z,1000.54
2019-03-08T12:03:57.122Z,1000.74
2019-03-08T12:04:57.051Z,1000.58
2019-03-08T12:05:57.029Z,1000.56
2019-03-08T12:06:57.024Z,1000.60
2019-03-08T12:07:57.013Z,1000.57
2019-03-08T12:08:57.015Z,1000.70
2019-03-08T12:09:57.029Z,1000.58
2019-03-08T12:10:56.998Z,1000.59
2019-03-08T12:11:56.975Z,1000.53
2019-03-08T12:12:56.961Z,1000.55
2019-03-08T12:13:56.975Z,1000.63
2019-03-08T12:14:56.939Z,1000.56
2019-03-08T12:15:56.924Z,1000.59
2019-03-08T12:16:56.923Z,1000.59
2019-03-08T12:17:56.922Z,1000.58
2019-03-08T12:18:56.891Z,1000.67
2019-03-08T12:19:56.922Z,1000.61
2019-03-08T12:20:56.922Z,1000.68
2019-03-08T12:21:56.857Z,1000.66
2019-03-08T12:22:56.854Z,1000.64
2019-03-08T12:23:56.853Z,1000.67
2019-03-08T12:24:56.829Z,1000.68
2019-03-08T12:25:56.817Z,1000.70
2019-03-08T12:26:56.822Z,1000.68